createdAt,value
2018-09-05T00:01:20.447Z,86.10
2018-09-05T00:03:49.667Z,86.20
2018-09-05T00:06:18.647Z,86.30
2018-09-05T00:08:47.678Z,86.40
2018-09-05T00:11:16.861Z,86.70
2018-09-05T00:13:46.011Z,86.60
2018-09-05T00:16:15.299Z,86.70
2018-09-05T00:18:44.612Z,86.70
2018-09-05T00:21:13.707Z,86.80
2018-09-05T00:23:42.891Z,87.00
2018-09-05T00:26:12.162Z,87.40
2018-09-05T00:28:41.225Z,87.70
2018-09-05T00:31:11.612Z,87.90
2018-09-05T00:33:40.995Z,87.90
2018-09-05T00:36:09.975Z,88.20
2018-09-05T00:38:39.595Z,87.90
2018-09-05T00:41:08.547Z,88.20
2018-09-05T00:43:37.856Z,88.10
2018-09-05T00:46:06.911Z,88.40
2018-09-05T00:48:36.188Z,88.70
2018-09-05T00:51:05.415Z,88.90
2018-09-05T00:53:34.510Z,88.70
2018-09-05T00:56:03.502Z,89.00
2018-09-05T00:58:33.118Z,89.20
2018-09-05T01:01:02.288Z,89.30
2018-09-05T01:03:31.399Z,89.70
2018-09-05T01:06:00.364Z,89.70
2018-09-05T01:08:29.432Z,90.00
2018-09-05T01:10:58.682Z,90.00
2018-09-05T01:13:27.740Z,90.10
2018-09-05T01:15:56.931Z,90.10
2018-09-05T01:18:26.302Z,90.20
2018-09-05T01:20:55.325Z,90.20
2018-09-05T01:23:24.623Z,90.30
2018-09-05T01:25:53.959Z,90.30
2018-09-05T01:28:23.039Z,90.40
2018-09-05T01:30:52.116Z,90.40
2018-09-05T01:33:21.962Z,90.40
2018-09-05T01:35:55.987Z,90.40
2018-09-05T01:38:25.287Z,90.30
2018-09-05T01:40:54.463Z,90.30
2018-09-05T01:43:23.559Z,90.30
2018-09-05T01:45:52.874Z,90.30
2018-09-05T01:48:22.717Z,90.40
2018-09-05T01:50:52.166Z,90.30
2018-09-05T01:53:21.318Z,90.30
2018-09-05T01:55:50.300Z,90.40
2018-09-05T01:58:19.502Z,90.50
2018-09-05T02:00:48.732Z,90.80
2018-09-05T02:03:18.013Z,90.50
2018-09-05T02:05:46.973Z,90.60
2018-09-05T02:08:16.762Z,90.60
2018-09-05T02:10:45.804Z,90.60
2018-09-05T02:13:14.875Z,90.60
2018-09-05T02:15:44.125Z,90.70
2018-09-05T02:18:13.226Z,90.60
2018-09-05T02:20:42.566Z,90.60
2018-09-05T02:23:12.401Z,90.70
2018-09-05T02:25:41.439Z,90.60
2018-09-05T02:28:10.986Z,90.60
2018-09-05T02:30:39.972Z,90.60
2018-09-05T02:33:09.158Z,90.80
2018-09-05T02:35:38.331Z,90.90
2018-09-05T02:38:07.798Z,91.10
2018-09-05T02:40:37.232Z,91.10
2018-09-05T02:43:06.391Z,91.10
2018-09-05T02:45:35.487Z,91.10
2018-09-05T02:48:05.023Z,91.00
2018-09-05T02:50:34.371Z,90.90
2018-09-05T02:53:03.596Z,90.90
2018-09-05T02:55:37.983Z,90.80
2018-09-05T02:58:07.279Z,90.80
2018-09-05T03:00:36.575Z,90.90
2018-09-05T03:03:05.788Z,90.90
2018-09-05T03:05:34.867Z,91.00
2018-09-05T03:08:04.083Z,91.10
2018-09-05T03:10:33.091Z,91.40
2018-09-05T03:13:02.261Z,91.50
2018-09-05T03:15:31.716Z,91.60
2018-09-05T03:18:01.251Z,91.60
2018-09-05T03:20:30.254Z,91.90
2018-09-05T03:22:59.431Z,92.00
2018-09-05T03:25:28.692Z,92.00
2018-09-05T03:27:57.836Z,92.20
2018-09-05T03:30:26.942Z,92.30
2018-09-05T03:32:55.919Z,92.40
2018-09-05T03:35:24.954Z,92.50
2018-09-05T03:37:54.276Z,92.50
2018-09-05T03:40:23.583Z,92.70
2018-09-05T03:42:52.867Z,92.80
2018-09-05T03:45:22.015Z,92.90
2018-09-05T03:47:51.363Z,93.10
2018-09-05T03:50:20.370Z,93.30
2018-09-05T03:52:49.599Z,93.40
2018-09-05T03:55:18.781Z,93.60
2018-09-05T03:57:47.945Z,93.60
2018-09-05T04:00:17.293Z,94.10
2018-09-05T04:02:46.256Z,94.30
2018-09-05T04:05:15.241Z,94.40
2018-09-05T04:07:44.601Z,94.60
2018-09-05T04:10:13.548Z,94.70
2018-09-05T04:12:42.919Z,95.00
2018-09-05T04:15:12.259Z,95.20
2018-09-05T04:17:41.574Z,95.40
2018-09-05T04:20:10.796Z,95.50
2018-09-05T04:22:40.144Z,95.50
2018-09-05T04:25:09.675Z,95.70
2018-09-05T04:27:38.719Z,95.80
2018-09-05T04:30:07.849Z,95.90
2018-09-05T04:32:37.023Z,96.40
2018-09-05T04:35:05.902Z,96.70
2018-09-05T04:37:35.175Z,96.80
2018-09-05T04:40:05.144Z,97.30
2018-09-05T04:42:34.214Z,97.80
2018-09-05T04:45:03.295Z,98.50
2018-09-05T04:47:32.820Z,99.20
2018-09-05T04:50:02.047Z,99.60
2018-09-05T04:52:31.390Z,99.90
2018-09-05T04:55:00.457Z,99.90
2018-09-05T04:57:29.972Z,99.90
2018-09-05T04:59:59.305Z,99.90
2018-09-05T05:02:28.704Z,99.90
2018-09-05T05:04:58.267Z,99.90
2018-09-05T05:07:27.958Z,99.90
2018-09-05T05:09:57.747Z,99.90
2018-09-05T05:12:26.670Z,99.90
2018-09-05T05:14:55.689Z,99.90
2018-09-05T05:17:24.960Z,99.90
2018-09-05T05:19:53.955Z,99.90
2018-09-05T05:22:22.974Z,99.90
2018-09-05T05:24:52.071Z,99.90
2018-09-05T05:27:21.611Z,99.90
2018-09-05T05:29:51.128Z,99.90
2018-09-05T05:32:20.457Z,99.90
2018-09-05T05:34:49.556Z,99.90
2018-09-05T05:37:18.444Z,99.90
2018-09-05T05:39:47.503Z,99.90
2018-09-05T05:42:16.711Z,99.90
2018-09-05T05:44:45.891Z,99.90
2018-09-05T05:47:15.162Z,99.90
2018-09-05T05:49:44.339Z,99.90
2018-09-05T05:52:13.334Z,99.90
2018-09-05T05:54:42.755Z,99.90
2018-09-05T05:57:11.990Z,99.90
2018-09-05T05:59:40.908Z,99.90
2018-09-05T06:02:10.110Z,99.90
2018-09-05T06:04:39.387Z,99.90
2018-09-05T06:07:09.138Z,99.90
2018-09-05T06:09:39.467Z,99.90
2018-09-05T06:12:08.932Z,99.90
2018-09-05T06:14:38.028Z,99.90
2018-09-05T06:17:07.107Z,99.90
2018-09-05T06:19:36.555Z,99.90
2018-09-05T06:22:06.473Z,99.90
2018-09-05T06:24:35.668Z,99.90
2018-09-05T06:27:05.074Z,99.90
2018-09-05T06:29:34.679Z,99.90
2018-09-05T06:32:03.755Z,99.90
2018-09-05T06:34:32.991Z,99.90
2018-09-05T06:37:02.129Z,99.90
2018-09-05T06:39:31.344Z,99.90
2018-09-05T06:42:00.275Z,99.90
2018-09-05T06:44:29.398Z,99.90
2018-09-05T06:46:58.956Z,99.90
2018-09-05T06:49:28.327Z,99.90
2018-09-05T06:51:57.704Z,99.90
2018-09-05T06:54:26.951Z,99.90
2018-09-05T06:56:57.174Z,99.90
2018-09-05T06:59:26.468Z,99.90
2018-09-05T07:01:55.747Z,99.90
2018-09-05T07:04:24.896Z,99.90
2018-09-05T07:06:54.117Z,99.90
2018-09-05T07:09:23.375Z,99.90
2018-09-05T07:11:52.687Z,99.90
2018-09-05T07:14:21.792Z,99.90
2018-09-05T07:16:51.306Z,99.90
2018-09-05T07:19:20.694Z,99.90
2018-09-05T07:21:49.870Z,99.90
2018-09-05T07:24:19.023Z,99.90
2018-09-05T07:26:48.460Z,99.90
2018-09-05T07:29:17.850Z,99.90
2018-09-05T07:31:47.351Z,99.90
2018-09-05T07:34:17.450Z,99.90
2018-09-05T07:36:46.708Z,99.90
2018-09-05T07:39:17.131Z,99.90
2018-09-05T07:41:47.391Z,99.90
2018-09-05T07:44:16.844Z,99.90
2018-09-05T07:46:45.996Z,99.90
2018-09-05T07:49:15.279Z,99.90
2018-09-05T07:51:44.686Z,99.90
2018-09-05T07:54:13.959Z,99.90
2018-09-05T07:56:43.154Z,99.90
2018-09-05T07:59:12.903Z,99.90
2018-09-05T08:01:42.536Z,99.60
2018-09-05T08:04:11.819Z,99.30
2018-09-05T08:06:40.893Z,99.20
2018-09-05T08:09:11.907Z,98.80
2018-09-05T08:11:41.437Z,98.80
2018-09-05T08:14:11.042Z,98.30
2018-09-05T08:16:40.407Z,98.10
2018-09-05T08:19:10.359Z,98.00
2018-09-05T08:21:40.022Z,97.90
2018-09-05T08:24:09.262Z,97.80
2018-09-05T08:26:38.384Z,97.90
2018-09-05T08:29:07.506Z,97.40
2018-09-05T08:31:36.735Z,97.40
2018-09-05T08:34:06.031Z,97.00
2018-09-05T08:36:35.523Z,96.30
2018-09-05T08:39:07.792Z,96.40
2018-09-05T08:41:37.004Z,96.10
2018-09-05T08:44:06.078Z,95.80
2018-09-05T08:46:35.091Z,95.30
2018-09-05T08:49:04.277Z,95.20
2018-09-05T08:51:33.730Z,95.10
2018-09-05T08:54:02.932Z,94.80
2018-09-05T08:56:32.046Z,95.20
2018-09-05T08:59:01.422Z,95.00
2018-09-05T09:01:30.775Z,95.20
2018-09-05T09:04:00.028Z,94.90
2018-09-05T09:06:29.280Z,94.70
2018-09-05T09:08:58.659Z,94.70
2018-09-05T09:11:27.978Z,94.60
2018-09-05T09:13:57.268Z,94.40
2018-09-05T09:16:26.542Z,94.30
2018-09-05T09:18:55.740Z,94.00
2018-09-05T09:21:24.908Z,93.30
2018-09-05T09:23:54.279Z,92.70
2018-09-05T09:26:23.467Z,92.30
2018-09-05T09:28:52.946Z,91.30
2018-09-05T09:31:22.120Z,91.30
2018-09-05T09:33:51.296Z,91.20
2018-09-05T09:36:20.271Z,90.10
2018-09-05T09:38:49.315Z,87.50
2018-09-05T09:41:18.312Z,83.30
2018-09-05T09:43:47.390Z,78.20
2018-09-05T09:46:16.851Z,75.90
2018-09-05T09:48:46.006Z,74.30
2018-09-05T09:51:15.215Z,72.90
2018-09-05T09:53:44.773Z,72.20
2018-09-05T09:56:13.844Z,71.10
2018-09-05T09:58:42.814Z,71.90
2018-09-05T10:01:17.231Z,69.60
2018-09-05T10:03:51.530Z,70.90
2018-09-05T10:06:22.527Z,71.60
2018-09-05T10:08:57.027Z,72.00
2018-09-05T10:11:31.445Z,72.30
2018-09-05T10:14:05.400Z,72.30
2018-09-05T10:16:44.706Z,71.00
2018-09-05T10:19:14.083Z,69.10
2018-09-05T10:21:43.399Z,66.70
2018-09-05T10:24:12.358Z,61.90
2018-09-05T10:26:41.326Z,56.80
2018-09-05T10:29:10.502Z,55.20
2018-09-05T10:31:39.739Z,49.40
2018-09-05T10:34:09.056Z,43.20
2018-09-05T10:36:38.571Z,37.80
2018-09-05T10:39:09.343Z,34.90
2018-09-05T10:41:38.524Z,34.60
2018-09-05T10:44:08.258Z,33.60
2018-09-05T10:46:37.786Z,32.50
2018-09-05T10:49:07.439Z,30.00
2018-09-05T10:51:41.557Z,29.50
2018-09-05T10:54:10.651Z,29.20
2018-09-05T10:56:39.659Z,28.00
2018-09-05T10:59:08.766Z,27.50
2018-09-05T11:01:37.918Z,26.90
2018-09-05T11:04:07.904Z,27.90
2018-09-05T11:06:37.292Z,27.50
2018-09-05T11:09:09.635Z,26.30
2018-09-05T11:11:39.580Z,26.80
2018-09-05T11:14:09.227Z,26.70
2018-09-05T11:16:38.572Z,26.60
2018-09-05T11:19:08.461Z,26.80
2018-09-05T11:21:37.811Z,27.00
2018-09-05T11:24:07.171Z,26.60
2018-09-05T11:26:36.567Z,28.00
2018-09-05T11:29:05.832Z,26.70
2018-09-05T11:31:35.175Z,26.90
2018-09-05T11:34:04.297Z,26.60
2018-09-05T11:36:33.745Z,26.30
2018-09-05T11:39:02.855Z,27.80
2018-09-05T11:41:32.468Z,29.60
2018-09-05T11:44:01.851Z,32.80
2018-09-05T11:46:30.927Z,36.10
2018-09-05T11:48:59.995Z,38.20
2018-09-05T11:51:28.992Z,41.60
2018-09-05T11:53:57.854Z,44.10
2018-09-05T11:56:27.181Z,45.90
2018-09-05T11:58:56.307Z,47.80
2018-09-05T12:01:25.890Z,49.60
2018-09-05T12:03:54.821Z,50.40
2018-09-05T12:06:24.257Z,51.30
2018-09-05T12:08:53.504Z,50.80
2018-09-05T12:11:22.414Z,50.30
2018-09-05T12:13:51.755Z,49.80
2018-09-05T12:16:21.005Z,50.30
2018-09-05T12:18:50.053Z,51.50
2018-09-05T12:21:19.064Z,52.60
2018-09-05T12:23:48.330Z,53.70
2018-09-05T12:26:17.405Z,55.20
2018-09-05T12:28:46.669Z,54.90
2018-09-05T12:31:15.555Z,54.80
2018-09-05T12:33:44.719Z,55.70
2018-09-05T12:36:13.854Z,56.70
2018-09-05T12:38:42.933Z,56.80
2018-09-05T12:41:11.879Z,57.50
2018-09-05T12:43:40.826Z,58.10
2018-09-05T12:46:10.006Z,57.20
2018-09-05T12:48:39.333Z,55.80
2018-09-05T12:51:08.617Z,57.50
2018-09-05T12:53:37.776Z,56.60
2018-09-05T12:56:06.954Z,56.80
2018-09-05T12:58:36.140Z,56.00
2018-09-05T13:01:05.396Z,56.00
2018-09-05T13:03:34.454Z,55.30
2018-09-05T13:06:03.581Z,56.20
2018-09-05T13:08:32.620Z,56.20
2018-09-05T13:11:01.805Z,56.20
2018-09-05T13:13:31.101Z,55.70
2018-09-05T13:16:00.297Z,55.80
2018-09-05T13:18:29.731Z,55.60
2018-09-05T13:21:00.746Z,56.30
2018-09-05T13:23:30.057Z,55.60
2018-09-05T13:25:58.978Z,55.60
2018-09-05T13:28:28.147Z,56.00
2018-09-05T13:30:57.633Z,56.00
2018-09-05T13:33:26.789Z,56.10
2018-09-05T13:35:56.150Z,57.90
2018-09-05T13:38:25.490Z,57.90
2018-09-05T13:40:54.559Z,59.40
2018-09-05T13:43:23.537Z,59.30
2018-09-05T13:45:52.467Z,59.00
2018-09-05T13:48:21.798Z,58.20
2018-09-05T13:50:50.921Z,57.90
2018-09-05T13:53:20.085Z,57.50
2018-09-05T13:55:49.207Z,57.60
2018-09-05T13:58:18.396Z,57.60
2018-09-05T14:00:47.386Z,57.80
2018-09-05T14:03:16.445Z,58.20
2018-09-05T14:05:45.701Z,57.60
2018-09-05T14:08:14.882Z,57.80
2018-09-05T14:10:43.933Z,57.80
2018-09-05T14:13:12.912Z,57.50
2018-09-05T14:15:41.992Z,57.50
2018-09-05T14:18:11.053Z,57.30
2018-09-05T14:20:40.313Z,56.90
2018-09-05T14:23:09.481Z,57.30
2018-09-05T14:25:38.645Z,57.20
2018-09-05T14:28:08.493Z,56.90
2018-09-05T14:30:37.780Z,57.50
2018-09-05T14:33:12.433Z,59.40
2018-09-05T14:35:41.945Z,61.40
2018-09-05T14:38:11.533Z,61.30
2018-09-05T14:40:40.888Z,62.50
2018-09-05T14:43:10.437Z,62.10
2018-09-05T14:45:39.518Z,59.20
2018-09-05T14:48:08.854Z,59.30
2018-09-05T14:50:38.361Z,59.20
2018-09-05T14:53:07.446Z,59.10
2018-09-05T14:55:37.752Z,59.70
2018-09-05T14:58:07.006Z,62.60
2018-09-05T15:00:36.158Z,63.50
2018-09-05T15:03:05.498Z,64.20
2018-09-05T15:05:34.529Z,63.70
2018-09-05T15:08:03.696Z,62.00
2018-09-05T15:10:32.784Z,63.50
2018-09-05T15:13:01.813Z,63.90
2018-09-05T15:15:30.792Z,63.00
2018-09-05T15:17:59.829Z,62.20
2018-09-05T15:20:28.983Z,63.10
2018-09-05T15:22:58.138Z,62.80
2018-09-05T15:25:27.446Z,63.60
2018-09-05T15:27:57.091Z,61.60
2018-09-05T15:30:26.474Z,61.60
2018-09-05T15:32:55.673Z,62.50
2018-09-05T15:35:25.054Z,65.90
2018-09-05T15:37:54.116Z,66.10
2018-09-05T15:40:23.179Z,67.80
2018-09-05T15:42:52.407Z,65.10
2018-09-05T15:45:21.739Z,66.70
2018-09-05T15:47:51.333Z,65.80
2018-09-05T15:50:21.517Z,65.30
2018-09-05T15:52:50.683Z,66.80
2018-09-05T15:55:20.864Z,66.30
2018-09-05T15:57:50.103Z,66.00
2018-09-05T16:00:19.099Z,67.90
2018-09-05T16:02:48.463Z,67.90
2018-09-05T16:05:17.907Z,69.20
2018-09-05T16:07:47.054Z,68.00
2018-09-05T16:10:16.655Z,67.70
2018-09-05T16:12:45.502Z,67.70
2018-09-05T16:15:14.955Z,66.90
2018-09-05T16:17:44.095Z,67.20
2018-09-05T16:20:13.085Z,69.60
2018-09-05T16:22:42.248Z,68.50
2018-09-05T16:25:11.534Z,69.20
2018-09-05T16:27:40.871Z,68.60
2018-09-05T16:30:10.135Z,68.90
2018-09-05T16:32:39.395Z,68.90
2018-09-05T16:35:08.330Z,69.70
2018-09-05T16:37:37.310Z,69.10
2018-09-05T16:40:06.325Z,68.80
2018-09-05T16:42:35.410Z,69.00
2018-09-05T16:45:04.871Z,69.10
2018-09-05T16:47:34.159Z,69.50
2018-09-05T16:50:03.261Z,69.70
2018-09-05T16:52:32.558Z,70.00
2018-09-05T16:55:01.549Z,70.20
2018-09-05T16:57:30.752Z,70.00
2018-09-05T17:00:00.373Z,69.70
2018-09-05T17:02:29.425Z,69.80
2018-09-05T17:04:58.403Z,70.00
2018-09-05T17:07:27.761Z,70.40
2018-09-05T17:09:57.136Z,70.50
2018-09-05T17:12:26.720Z,70.90
2018-09-05T17:14:55.733Z,71.20
2018-09-05T17:17:25.573Z,71.00
2018-09-05T17:19:54.777Z,71.10
2018-09-05T17:22:23.875Z,71.20
2018-09-05T17:24:53.579Z,71.20
2018-09-05T17:27:22.910Z,71.40
2018-09-05T17:29:52.026Z,71.70
2018-09-05T17:32:21.760Z,71.90
2018-09-05T17:34:51.027Z,72.30
2018-09-05T17:37:19.992Z,72.50
2018-09-05T17:39:49.333Z,72.70
2018-09-05T17:42:18.344Z,73.10
2018-09-05T17:44:48.501Z,73.30
2018-09-05T17:47:17.490Z,73.60
2018-09-05T17:49:46.425Z,73.80
2018-09-05T17:52:15.429Z,74.00
2018-09-05T17:54:45.163Z,74.60
2018-09-05T17:57:15.510Z,74.80
2018-09-05T17:59:44.609Z,75.10
2018-09-05T18:02:15.000Z,75.50
2018-09-05T18:04:44.342Z,75.50
2018-09-05T18:07:13.349Z,75.90
2018-09-05T18:09:42.443Z,75.90
2018-09-05T18:12:11.453Z,76.40
2018-09-05T18:14:41.188Z,76.60
2018-09-05T18:17:10.726Z,76.90
2018-09-05T18:19:40.270Z,77.30
2018-09-05T18:22:11.086Z,77.50
2018-09-05T18:24:40.426Z,77.90
2018-09-05T18:27:09.643Z,78.20
2018-09-05T18:29:38.697Z,78.40
2018-09-05T18:32:07.778Z,78.60
2018-09-05T18:34:37.103Z,78.90
2018-09-05T18:37:06.359Z,79.10
2018-09-05T18:39:35.567Z,79.30
2018-09-05T18:42:04.582Z,79.60
2018-09-05T18:44:34.041Z,79.70
2018-09-05T18:47:03.373Z,80.00
2018-09-05T18:49:32.813Z,80.40
2018-09-05T18:52:01.801Z,80.60
2018-09-05T18:54:31.170Z,80.90
2018-09-05T18:57:00.599Z,80.90
2018-09-05T18:59:30.504Z,81.20
2018-09-05T19:01:59.740Z,81.00
2018-09-05T19:04:29.754Z,81.20
2018-09-05T19:06:59.183Z,81.40
2018-09-05T19:09:28.101Z,82.40
2018-09-05T19:11:57.120Z,81.70
2018-09-05T19:14:26.245Z,81.60
2018-09-05T19:16:55.561Z,81.90
2018-09-05T19:19:25.554Z,82.00
2018-09-05T19:21:54.795Z,82.00
2018-09-05T19:24:24.408Z,81.60
2018-09-05T19:26:53.849Z,81.80
2018-09-05T19:29:23.120Z,81.90
2018-09-05T19:31:52.445Z,82.20
2018-09-05T19:34:21.544Z,82.00
2018-09-05T19:36:50.797Z,83.10
2018-09-05T19:39:20.107Z,82.30
2018-09-05T19:41:49.052Z,82.60
2018-09-05T19:44:18.293Z,82.60
2018-09-05T19:46:47.344Z,82.50
2018-09-05T19:49:16.465Z,82.70
2018-09-05T19:51:45.935Z,82.60
2018-09-05T19:54:14.854Z,83.00
2018-09-05T19:56:43.824Z,82.80
2018-09-05T19:59:13.159Z,83.00
2018-09-05T20:01:42.871Z,82.90
2018-09-05T20:04:13.086Z,82.90
2018-09-05T20:06:42.437Z,82.90
2018-09-05T20:09:11.661Z,83.10
2018-09-05T20:11:40.839Z,83.30
2018-09-05T20:14:10.174Z,83.50
2018-09-05T20:16:39.619Z,83.40
2018-09-05T20:19:08.594Z,83.50
2018-09-05T20:21:38.184Z,83.50
2018-09-05T20:24:07.535Z,83.90
2018-09-05T20:26:36.697Z,84.00
2018-09-05T20:29:05.787Z,84.10
2018-09-05T20:31:34.998Z,84.10
2018-09-05T20:34:04.451Z,84.00
2018-09-05T20:36:33.816Z,84.20
2018-09-05T20:39:03.184Z,84.60
2018-09-05T20:41:32.458Z,85.50
2018-09-05T20:44:01.725Z,85.00
2018-09-05T20:46:31.221Z,85.10
2018-09-05T20:49:00.122Z,85.20
2018-09-05T20:51:29.090Z,85.20
2018-09-05T20:53:58.254Z,85.50
2018-09-05T20:56:27.422Z,85.50
2018-09-05T20:58:56.418Z,85.60
2018-09-05T21:01:25.793Z,85.80
2018-09-05T21:03:54.979Z,85.90
2018-09-05T21:06:24.010Z,86.10
2018-09-05T21:08:54.321Z,85.60
2018-09-05T21:11:23.295Z,86.40
2018-09-05T21:13:52.266Z,86.60
2018-09-05T21:16:21.750Z,86.80
2018-09-05T21:18:51.167Z,86.80
2018-09-05T21:21:20.136Z,87.30
2018-09-05T21:23:49.083Z,87.50
2018-09-05T21:26:18.182Z,87.70
2018-09-05T21:28:47.099Z,88.10
2018-09-05T21:31:16.497Z,88.20
2018-09-05T21:33:45.760Z,88.80
2018-09-05T21:36:15.106Z,88.90
2018-09-05T21:38:44.054Z,89.20
2018-09-05T21:41:13.121Z,89.60
2018-09-05T21:43:42.581Z,89.80
2018-09-05T21:46:12.024Z,90.10
2018-09-05T21:48:41.277Z,90.10
2018-09-05T21:51:10.431Z,90.10
2018-09-05T21:53:39.488Z,90.20
2018-09-05T21:56:08.441Z,90.50
2018-09-05T21:58:37.547Z,90.20
2018-09-05T22:01:06.771Z,90.20
2018-09-05T22:03:35.844Z,90.30
2018-09-05T22:06:05.146Z,90.30
2018-09-05T22:08:34.038Z,90.40
2018-09-05T22:11:08.299Z,90.50
2018-09-05T22:13:37.442Z,90.70
2018-09-05T22:16:06.373Z,90.80
2018-09-05T22:18:35.523Z,90.90
2018-09-05T22:21:05.008Z,91.10
2018-09-05T22:23:34.133Z,91.30
2018-09-05T22:26:03.526Z,91.60
2018-09-05T22:28:32.596Z,91.70
2018-09-05T22:31:01.834Z,91.80
2018-09-05T22:33:30.738Z,91.90
2018-09-05T22:35:59.847Z,91.90
2018-09-05T22:38:28.729Z,91.70
2018-09-05T22:40:57.860Z,92.20
2018-09-05T22:43:38.217Z,92.10
2018-09-05T22:46:18.520Z,92.40
2018-09-05T22:50:01.574Z,92.50
2018-09-05T22:52:46.680Z,92.60
2018-09-05T22:55:33.861Z,92.80
2018-09-05T22:58:18.742Z,93.00
2018-09-05T23:03:03.474Z,93.40
2018-09-05T23:07:48.735Z,93.30
2018-09-05T23:10:28.880Z,93.90
2018-09-05T23:13:08.910Z,94.30
2018-09-05T23:15:49.287Z,94.50
2018-09-05T23:18:41.912Z,94.60
2018-09-05T23:21:23.737Z,94.80
2018-09-05T23:23:57.897Z,94.80
2018-09-05T23:26:27.262Z,94.80
2018-09-05T23:28:56.974Z,95.00
2018-09-05T23:31:26.562Z,95.10
2018-09-05T23:33:55.703Z,95.30
2018-09-05T23:36:25.362Z,95.30
2018-09-05T23:38:54.492Z,95.50
2018-09-05T23:41:23.927Z,95.60
2018-09-05T23:43:53.295Z,95.60
2018-09-05T23:46:22.703Z,95.90
2018-09-05T23:48:51.726Z,95.90
2018-09-05T23:51:20.839Z,95.90
2018-09-05T23:53:49.842Z,95.90
2018-09-05T23:56:19.693Z,95.90
2018-09-05T23:58:49.067Z,95.90
